Time;durP1;ratioP1;P1;durP2;ratioP2;P2;SDS_P1;SDS_P2;PMS_P1;PMS_P2;Temp;Humidity;BMP_temperature;BMP_pressure;BME280_temperature;BME280_humidity;BME280_pressure;Samples;Min_cycle;Max_cycle;Signal;HPM_P1;HPM_P2
2022/05/14 00:01:44;;;;;;;6.47;3.95;;;;;;;12.01;100.00;100938.13;6038864;29;20535;-94
2022/05/14 00:04:46;;;;;;;6.40;3.60;;;;;;;11.95;100.00;100939.44;6040265;29;20055;-94
2022/05/14 00:07:50;;;;;;;6.35;3.75;;;;;;;11.89;100.00;100936.50;6062966;29;20047;-95
2022/05/14 00:14:14;;;;;;;6.35;3.13;;;;;;;11.78;100.00;100935.53;6052956;29;20115;-94
2022/05/14 00:17:16;;;;;;;7.93;3.60;;;;;;;11.66;100.00;100938.25;6056266;29;20559;-95
2022/05/14 00:20:18;;;;;;;5.70;3.33;;;;;;;11.59;100.00;100935.28;6040675;29;20526;-95
2022/05/14 00:23:20;;;;;;;4.97;3.33;;;;;;;11.51;100.00;100935.06;6052769;29;20127;-95
2022/05/14 00:26:22;;;;;;;4.78;3.10;;;;;;;11.41;100.00;100938.34;6043542;29;20143;-95
2022/05/14 00:29:27;;;;;;;6.18;3.30;;;;;;;11.30;100.00;100943.50;6041337;29;20209;-95
2022/05/14 00:32:30;;;;;;;7.57;3.53;;;;;;;11.25;100.00;100934.44;6057960;29;20573;-95
2022/05/14 00:35:33;;;;;;;5.57;3.17;;;;;;;11.24;100.00;100938.78;6046428;29;20148;-95
2022/05/14 00:38:35;;;;;;;5.78;3.30;;;;;;;11.26;100.00;100939.50;6036775;29;20419;-94
2022/05/14 00:41:38;;;;;;;6.43;3.33;;;;;;;11.37;100.00;100938.69;6037619;29;20473;-95
2022/05/14 00:44:40;;;;;;;8.52;3.28;;;;;;;11.45;100.00;100938.09;6052392;29;20056;-95
2022/05/14 00:47:45;;;;;;;5.05;3.35;;;;;;;11.52;100.00;100941.88;6038730;29;20592;-95
2022/05/14 00:50:51;;;;;;;6.55;3.70;;;;;;;11.58;100.00;100938.84;6047547;29;20055;-95
2022/05/14 00:53:58;;;;;;;7.57;3.78;;;;;;;11.64;100.00;100934.00;6040008;29;20067;-95
2022/05/14 00:57:05;;;;;;;4.95;3.22;;;;;;;11.73;100.00;100932.47;6030401;29;20091;-95
2022/05/14 01:00:26;;;;;;;5.07;3.22;;;;;;;11.73;100.00;100937.66;6053284;29;20037;-95
2022/05/14 01:03:29;;;;;;;7.07;3.30;;;;;;;11.72;100.00;100938.59;6021707;29;20081;-94
2022/05/14 01:06:33;;;;;;;4.55;3.17;;;;;;;11.69;100.00;100936.22;6026415;29;20049;-94
2022/05/14 01:09:37;;;;;;;9.55;3.80;;;;;;;11.73;100.00;100919.50;6031835;29;20068;-94
2022/05/14 01:12:50;;;;;;;7.47;3.60;;;;;;;11.71;100.00;100923.97;6052858;29;20047;-94
2022/05/14 01:15:56;;;;;;;5.13;3.13;;;;;;;11.71;100.00;100925.75;6042631;29;20053;-94
2022/05/14 01:19:00;;;;;;;10.75;3.70;;;;;;;11.70;100.00;100924.94;6035072;29;20080;-94
2022/05/14 01:22:45;;;;;;;6.47;3.28;;;;;;;11.67;100.00;100919.97;6040409;29;20067;-95
2022/05/14 01:26:28;;;;;;;6.00;3.25;;;;;;;11.66;100.00;100926.09;5949317;29;20550;-93
2022/05/14 01:29:42;;;;;;;7.45;3.63;;;;;;;11.60;100.00;100923.97;5944843;29;20281;-95
2022/05/14 01:33:04;;;;;;;8.57;3.38;;;;;;;11.55;100.00;100926.09;5941989;29;20693;-95
2022/05/14 01:36:17;;;;;;;8.43;3.67;;;;;;;11.48;100.00;100914.53;5931651;29;20051;-94
2022/05/14 01:39:20;;;;;;;5.03;3.40;;;;;;;11.45;100.00;100923.38;5926238;29;20050;-96
2022/05/14 01:42:23;;;;;;;8.93;3.42;;;;;;;11.41;100.00;100927.16;5935498;29;20051;-95
2022/05/14 01:45:25;;;;;;;8.07;3.45;;;;;;;11.41;100.00;100915.03;5942559;29;20358;-95
2022/05/14 01:48:28;;;;;;;5.80;3.42;;;;;;;11.47;100.00;100918.09;5943670;29;20065;-95
2022/05/14 01:51:32;;;;;;;9.93;3.42;;;;;;;11.50;100.00;100913.50;5936843;29;20051;-95
2022/05/14 01:54:36;;;;;;;5.13;2.83;;;;;;;11.57;100.00;100906.88;5939984;29;20311;-94
2022/05/14 01:57:39;;;;;;;5.70;3.20;;;;;;;11.57;100.00;100914.66;5938094;29;20149;-95
2022/05/14 02:00:41;;;;;;;7.00;3.17;;;;;;;11.60;100.00;100918.78;5947712;29;20517;-94
2022/05/14 02:03:46;;;;;;;5.70;3.20;;;;;;;11.66;100.00;100917.50;6036294;29;20165;-95
2022/05/14 02:06:49;;;;;;;8.52;3.63;;;;;;;11.73;100.00;100913.50;6038351;29;20601;-94
2022/05/14 02:09:51;;;;;;;10.05;3.17;;;;;;;11.69;100.00;100907.72;6040775;29;20166;-94
2022/05/14 02:12:57;;;;;;;5.30;3.13;;;;;;;11.56;100.00;100905.25;6042698;29;20050;-95
2022/05/14 02:15:59;;;;;;;5.50;3.03;;;;;;;11.46;100.00;100911.25;6031276;29;20053;-95
2022/05/14 02:19:04;;;;;;;7.80;3.42;;;;;;;11.36;100.00;100911.13;6031449;29;20056;-95
2022/05/14 02:22:07;;;;;;;7.22;3.22;;;;;;;11.24;100.00;100912.88;6035841;29;20155;-95
2022/05/14 02:25:10;;;;;;;10.23;3.20;;;;;;;11.10;100.00;100910.50;6030814;29;20056;-94
2022/05/14 02:28:13;;;;;;;5.90;3.38;;;;;;;10.99;100.00;100917.31;6033498;29;20052;-94
2022/05/14 02:31:15;;;;;;;6.85;3.13;;;;;;;10.98;100.00;100918.25;6029981;29;20052;-95
2022/05/14 02:34:17;;;;;;;7.68;3.38;;;;;;;10.95;100.00;100907.28;6037014;29;20045;-94
2022/05/14 02:37:24;;;;;;;5.70;3.38;;;;;;;10.92;100.00;100916.09;6034837;29;20049;-94
2022/05/14 02:40:27;;;;;;;9.18;3.50;;;;;;;10.93;100.00;100914.34;6053394;29;20044;-94
2022/05/14 02:43:29;;;;;;;6.70;3.97;;;;;;;10.88;100.00;100909.53;6048811;29;20048;-94
2022/05/14 02:46:32;;;;;;;7.00;3.38;;;;;;;10.82;100.00;100909.97;6020662;29;20044;-95
2022/05/14 02:49:34;;;;;;;8.15;3.90;;;;;;;10.81;100.00;100918.69;6048758;29;20056;-95
2022/05/14 02:52:37;;;;;;;7.80;3.90;;;;;;;10.76;100.00;100913.84;6060315;29;20049;-95
2022/05/14 02:55:39;;;;;;;9.57;3.25;;;;;;;10.72;100.00;100912.41;6048578;29;20056;-94
2022/05/14 03:02:04;;;;;;;7.50;3.85;;;;;;;10.63;100.00;100907.88;6030907;29;20536;-95
2022/05/14 03:05:07;;;;;;;6.00;3.38;;;;;;;10.55;100.00;100905.03;6035946;29;20056;-95
2022/05/14 03:08:09;;;;;;;7.50;3.63;;;;;;;10.46;100.00;100903.13;6049117;29;20712;-94
2022/05/14 03:11:11;;;;;;;10.07;3.90;;;;;;;10.38;100.00;100914.03;6056458;29;20123;-94
2022/05/14 03:14:14;;;;;;;8.18;3.65;;;;;;;10.36;100.00;100913.34;6026866;29;20044;-95
2022/05/14 03:17:17;;;;;;;7.13;3.42;;;;;;;10.32;100.00;100917.88;6038402;29;20612;-94
2022/05/14 03:20:20;;;;;;;5.72;3.25;;;;;;;10.34;100.00;100912.59;6047186;29;20049;-94
2022/05/14 03:23:22;;;;;;;7.55;3.40;;;;;;;10.42;100.00;100919.81;6057843;29;20045;-96
2022/05/14 03:26:24;;;;;;;12.40;3.50;;;;;;;10.47;100.00;100921.13;6036864;29;20048;-95
2022/05/14 03:29:27;;;;;;;9.68;3.90;;;;;;;10.49;100.00;100915.84;6042561;29;20051;-94
2022/05/14 03:32:29;;;;;;;9.48;3.65;;;;;;;10.53;100.00;100919.84;6057860;29;20091;-94
2022/05/14 03:35:31;;;;;;;8.27;3.55;;;;;;;10.50;100.00;100901.97;6026071;29;20041;-95
2022/05/14 03:38:35;;;;;;;5.70;3.30;;;;;;;10.51;100.00;100911.41;6043892;29;20184;-94
2022/05/14 03:41:37;;;;;;;5.20;3.30;;;;;;;10.59;100.00;100913.44;6044014;29;20267;-95
2022/05/14 03:44:39;;;;;;;7.93;3.60;;;;;;;10.63;100.00;100917.44;6062502;29;20055;-94
2022/05/14 03:47:41;;;;;;;7.45;3.58;;;;;;;10.66;100.00;100919.81;6059452;29;20056;-94
2022/05/14 03:50:43;;;;;;;8.73;3.20;;;;;;;10.64;100.00;100909.56;6040801;29;20210;-96
2022/05/14 03:53:47;;;;;;;8.43;3.45;;;;;;;10.64;100.00;100912.16;6046698;29;20370;-94
2022/05/14 03:56:50;;;;;;;9.65;3.53;;;;;;;10.73;100.00;100905.44;6047257;29;20048;-94
2022/05/14 03:59:52;;;;;;;9.27;3.72;;;;;;;10.78;100.00;100911.97;6041174;29;20491;-94
2022/05/14 04:02:54;;;;;;;6.47;3.63;;;;;;;10.90;100.00;100910.22;6053077;29;20043;-95
2022/05/14 04:05:57;;;;;;;12.70;3.10;;;;;;;11.06;100.00;100916.88;6038612;29;20542;-94
2022/05/14 04:08:59;;;;;;;5.13;3.15;;;;;;;11.11;100.00;100915.56;6033283;29;20060;-94
2022/05/14 04:12:02;;;;;;;8.00;3.78;;;;;;;11.24;100.00;100923.25;6035865;29;20048;-95
2022/05/14 04:15:06;;;;;;;8.68;3.70;;;;;;;11.46;100.00;100916.44;6041115;29;20613;-94
2022/05/14 04:18:09;;;;;;;10.55;4.03;;;;;;;11.54;100.00;100927.03;6030651;29;20104;-94
2022/05/14 04:21:12;;;;;;;6.72;3.25;;;;;;;11.62;100.00;100928.09;6042291;29;20249;-94
2022/05/14 04:24:15;;;;;;;10.07;3.90;;;;;;;11.57;100.00;100938.00;6041339;29;20502;-96
2022/05/14 04:27:18;;;;;;;6.32;3.50;;;;;;;11.64;100.00;100930.56;6027044;29;20048;-95
2022/05/14 04:30:22;;;;;;;9.27;4.30;;;;;;;11.64;100.00;100930.56;6027951;29;20428;-96
2022/05/14 04:33:26;;;;;;;6.95;3.80;;;;;;;11.59;100.00;100943.06;6041535;29;20140;-96
2022/05/14 04:36:29;;;;;;;10.30;3.72;;;;;;;11.70;100.00;100955.22;6045406;29;20136;-96
2022/05/14 04:39:31;;;;;;;10.27;4.13;;;;;;;11.68;100.00;100952.75;6024028;29;21208;-96
2022/05/14 04:42:38;;;;;;;7.63;3.97;;;;;;;11.75;100.00;100953.94;6070031;29;20055;-95
2022/05/14 04:45:42;;;;;;;9.85;4.25;;;;;;;11.71;100.00;100949.91;6047690;29;20044;-95
2022/05/14 04:48:44;;;;;;;8.48;3.92;;;;;;;11.68;100.00;100952.75;6036447;29;20143;-96
2022/05/14 04:51:47;;;;;;;10.60;4.00;;;;;;;11.75;100.00;100966.03;6043925;29;20052;-95
2022/05/14 04:54:52;;;;;;;7.93;3.75;;;;;;;11.79;100.00;100963.09;6046716;29;20145;-96
2022/05/14 04:57:55;;;;;;;8.75;3.80;;;;;;;11.89;100.00;100971.03;6019867;29;20144;-95
2022/05/14 05:00:58;;;;;;;12.52;4.13;;;;;;;11.98;100.00;100966.91;6028727;29;20071;-96
2022/05/14 05:04:02;;;;;;;9.68;3.55;;;;;;;12.11;100.00;100970.19;6039455;29;20064;-94
2022/05/14 05:07:04;;;;;;;8.15;4.15;;;;;;;12.21;100.00;100975.50;6026110;29;20060;-94
2022/05/14 05:10:07;;;;;;;10.15;3.78;;;;;;;12.17;100.00;100969.69;6045570;29;20494;-94
2022/05/14 05:13:17;;;;;;;10.52;4.20;;;;;;;12.18;100.00;100970.56;6045848;29;20547;-94
2022/05/14 05:16:19;;;;;;;;;;;;;;;12.25;100.00;100976.91;6034738;29;20041;-96
2022/05/14 05:19:22;;;;;;;8.07;4.10;;;;;;;12.34;100.00;100983.13;6055739;29;20309;-93
2022/05/14 05:22:24;;;;;;;7.10;3.58;;;;;;;12.41;100.00;100990.31;6034969;29;20056;-95
2022/05/14 05:25:26;;;;;;;8.30;3.83;;;;;;;12.45;100.00;100990.91;6050238;29;20045;-93
2022/05/14 05:28:28;;;;;;;6.60;3.92;;;;;;;12.48;100.00;100990.66;6036580;29;20510;-95
2022/05/14 05:31:31;;;;;;;10.35;4.50;;;;;;;12.55;100.00;100993.59;6059577;29;20045;-94
2022/05/14 05:34:33;;;;;;;8.10;4.38;;;;;;;12.66;100.00;100999.56;6046266;29;20550;-93
2022/05/14 05:37:36;;;;;;;8.05;4.43;;;;;;;12.73;100.00;100999.09;6047345;29;20044;-96
2022/05/14 05:40:38;;;;;;;10.32;4.25;;;;;;;12.77;100.00;100993.53;6040061;29;20064;-94
2022/05/14 05:43:39;;;;;;;8.30;3.90;;;;;;;12.77;100.00;101000.47;6054547;29;20056;-95
2022/05/14 05:46:42;;;;;;;7.45;4.72;;;;;;;12.78;100.00;101004.75;6050493;29;20053;-95
2022/05/14 05:49:46;;;;;;;11.73;4.38;;;;;;;12.83;100.00;101010.38;6048044;29;20489;-96
2022/05/14 05:52:50;;;;;;;10.23;4.35;;;;;;;12.92;99.96;101005.28;6061843;29;20053;-96
2022/05/14 05:59:15;;;;;;;13.27;4.47;;;;;;;13.00;100.00;101009.03;6045975;29;20048;-96
2022/05/14 06:02:16;;;;;;;9.88;4.53;;;;;;;12.94;100.00;101018.13;6038957;29;20483;-96
2022/05/14 06:05:19;;;;;;;7.30;4.10;;;;;;;12.99;100.00;101015.97;6059802;29;20037;-96
2022/05/14 06:08:23;;;;;;;11.80;4.65;;;;;;;13.06;100.00;101027.53;6025511;29;20088;-96
2022/05/14 06:11:26;;;;;;;10.25;4.03;;;;;;;13.18;100.00;101028.31;6027180;29;20497;-96
2022/05/14 06:14:28;;;;;;;10.15;4.28;;;;;;;13.21;100.00;101025.44;6052659;29;20492;-96
2022/05/14 06:17:32;;;;;;;10.98;4.47;;;;;;;13.29;100.00;101030.88;6037013;29;20191;-96
2022/05/14 06:20:38;;;;;;;8.98;4.50;;;;;;;13.32;100.00;101019.41;6062780;29;20052;-95
2022/05/14 06:23:40;;;;;;;13.63;5.03;;;;;;;13.39;100.00;101027.50;6032751;29;20044;-96
2022/05/14 06:26:43;;;;;;;8.43;5.00;;;;;;;13.61;100.00;101034.34;6054415;29;20041;-96
2022/05/14 06:29:46;;;;;;;9.30;4.55;;;;;;;13.65;100.00;101028.78;6061371;29;20041;-96
2022/05/14 06:32:47;;;;;;;8.90;4.32;;;;;;;13.75;99.95;101021.03;6033758;29;20057;-94
2022/05/14 06:35:49;;;;;;;13.90;4.60;;;;;;;13.78;99.88;101031.16;6041689;29;20044;-96
2022/05/14 06:38:52;;;;;;;14.30;4.90;;;;;;;13.83;99.23;101028.19;6037151;29;20052;-96
2022/05/14 06:41:54;;;;;;;16.23;5.25;;;;;;;13.86;100.00;101025.31;6052207;29;20036;-95
2022/05/14 06:44:56;;;;;;;12.00;4.65;;;;;;;13.87;99.24;101024.38;6056163;29;20050;-96
2022/05/14 06:47:59;;;;;;;10.32;4.78;;;;;;;13.88;99.26;101031.22;6030294;29;20104;-96
2022/05/14 06:51:05;;;;;;;11.45;5.13;;;;;;;13.89;100.00;101033.69;6017905;29;20048;-94
2022/05/14 06:54:10;;;;;;;13.05;5.53;;;;;;;13.93;99.23;101027.25;6046695;29;20041;-94
2022/05/14 06:57:14;;;;;;;8.15;4.32;;;;;;;14.06;99.72;101034.00;6040760;29;20563;-95
2022/05/14 07:00:18;;;;;;;12.10;5.32;;;;;;;14.17;98.47;101041.75;6030720;29;20117;-94
2022/05/14 07:06:42;;;;;;;13.85;4.90;;;;;;;14.40;98.17;101039.75;6057555;29;20049;-94
2022/05/14 07:09:44;;;;;;;15.73;5.10;;;;;;;14.52;95.68;101053.50;6031909;29;20048;-95
2022/05/14 07:12:46;;;;;;;13.27;4.25;;;;;;;14.68;95.03;101046.00;6057721;29;20930;-93
2022/05/14 07:15:48;;;;;;;12.05;4.70;;;;;;;14.76;95.38;101035.75;6044746;29;20060;-94
2022/05/14 07:18:50;;;;;;;11.88;5.03;;;;;;;14.78;93.82;101049.47;6051746;29;20040;-95
2022/05/14 07:21:54;;;;;;;14.52;4.72;;;;;;;14.83;94.98;101049.88;6037088;29;20488;-95
2022/05/14 07:24:56;;;;;;;12.38;4.75;;;;;;;14.83;94.91;101046.44;6043397;29;20063;-96
2022/05/14 07:27:58;;;;;;;12.25;5.70;;;;;;;14.79;94.05;101055.50;6049995;29;20048;-94
2022/05/14 07:31:02;;;;;;;13.20;4.60;;;;;;;15.03;93.21;101055.06;6056313;29;20048;-95
2022/05/14 07:34:04;;;;;;;11.02;5.00;;;;;;;15.34;92.09;101057.56;6041921;29;20100;-96
2022/05/14 07:37:08;;;;;;;13.43;5.45;;;;;;;15.57;91.43;101064.09;6057374;29;20036;-95
2022/05/14 07:40:17;;;;;;;13.98;4.93;;;;;;;15.85;89.74;101077.25;6048353;29;20573;-95
2022/05/14 07:43:24;;;;;;;15.27;6.13;;;;;;;15.97;86.95;101064.84;6044521;29;20406;-96
2022/05/14 07:46:34;;;;;;;12.82;4.40;;;;;;;15.92;87.31;101067.88;6041073;29;20048;-96
2022/05/14 07:49:37;;;;;;;12.05;5.13;;;;;;;15.92;88.51;101073.09;6062679;29;20041;-96
2022/05/14 07:52:40;;;;;;;12.63;5.47;;;;;;;16.03;87.51;101064.28;6059031;29;20083;-95
2022/05/14 07:55:43;;;;;;;13.65;5.53;;;;;;;16.31;87.17;101063.31;6044357;29;20119;-94
2022/05/14 07:58:47;;;;;;;11.82;5.32;;;;;;;16.58;84.70;101065.09;6056026;29;20487;-91
2022/05/14 08:01:49;;;;;;;11.38;5.10;;;;;;;16.61;84.36;101061.38;6054109;29;20052;-92
2022/05/14 08:04:52;;;;;;;10.80;5.03;;;;;;;16.38;85.45;101071.41;6056787;29;20048;-93
2022/05/14 08:07:54;;;;;;;12.07;5.40;;;;;;;16.31;86.69;101065.94;6061566;29;20123;-93
2022/05/14 08:10:57;;;;;;;19.40;5.32;;;;;;;16.23;87.60;101063.22;6045089;29;20495;-93
2022/05/14 08:13:59;;;;;;;14.07;5.03;;;;;;;16.19;86.18;101079.34;6039419;29;20117;-94
2022/05/14 08:17:02;;;;;;;13.35;4.80;;;;;;;16.21;86.72;101070.38;6028196;29;20053;-95
2022/05/14 08:20:07;;;;;;;16.13;6.32;;;;;;;16.12;86.97;101068.63;6032731;29;20458;-92
2022/05/14 08:26:34;;;;;;;14.75;4.72;;;;;;;16.27;86.68;101074.19;6057913;29;20051;-95
2022/05/14 08:29:38;;;;;;;12.68;4.40;;;;;;;16.30;82.57;101073.94;6041294;29;20048;-94
2022/05/14 08:32:40;;;;;;;15.63;5.22;;;;;;;16.41;84.63;101084.19;6055084;29;20052;-92
2022/05/14 08:35:42;;;;;;;15.32;4.05;;;;;;;16.45;79.02;101074.28;6059317;29;20045;-95
2022/05/14 08:38:44;;;;;;;12.68;4.15;;;;;;;16.46;80.40;101070.69;6058419;29;20060;-92
2022/05/14 08:41:49;;;;;;;16.17;5.43;;;;;;;16.56;81.25;101084.50;6047194;29;20108;-95
2022/05/14 08:44:51;;;;;;;13.73;4.68;;;;;;;16.52;78.82;101085.75;6061434;29;20057;-91
2022/05/14 08:48:02;;;;;;;16.88;4.47;;;;;;;16.47;78.35;101083.63;6036960;29;20053;-91
2022/05/14 08:51:21;;;;;;;13.77;4.63;;;;;;;16.55;79.44;101088.91;6056753;29;20044;-94
2022/05/14 08:54:23;;;;;;;8.50;4.68;;;;;;;16.62;78.21;101085.72;6039875;29;20546;-90
2022/05/14 08:57:46;;;;;;;14.13;4.60;;;;;;;16.63;76.98;101095.22;6058177;29;20041;-92
2022/05/14 09:00:48;;;;;;;11.50;4.82;;;;;;;16.53;78.20;101096.06;6056295;29;20053;-90
2022/05/14 09:03:50;;;;;;;13.05;5.20;;;;;;;16.37;78.61;101077.59;6030882;29;20512;-92
2022/05/14 09:06:52;;;;;;;15.45;4.45;;;;;;;16.45;80.94;101097.78;6056467;29;20052;-93
2022/05/14 09:09:57;;;;;;;14.70;4.60;;;;;;;16.57;78.18;101093.97;6067407;29;20052;-92
2022/05/14 09:13:22;;;;;;;12.50;5.22;;;;;;;16.67;77.90;101079.09;6054971;29;20089;-94
2022/05/14 09:16:28;;;;;;;15.07;4.85;;;;;;;16.68;77.11;101087.75;6041326;29;20048;-90
2022/05/14 09:19:34;;;;;;;14.15;4.35;;;;;;;16.59;75.66;101097.28;6043696;29;20052;-93
2022/05/14 09:22:47;;;;;;;15.65;4.40;;;;;;;16.63;75.42;101096.03;6045698;29;20116;-91
2022/05/14 09:25:49;;;;;;;12.07;4.32;;;;;;;16.72;75.51;101096.91;6054270;29;20051;-90
2022/05/14 09:29:11;;;;;;;13.77;5.05;;;;;;;16.97;77.75;101098.06;6057530;29;20045;-91
2022/05/14 09:32:16;;;;;;;12.93;4.72;;;;;;;17.06;75.37;101106.78;6055180;29;20534;-92
2022/05/14 09:35:23;;;;;;;14.57;5.65;;;;;;;17.20;76.35;101096.63;6061577;29;20064;-93
2022/05/14 09:38:27;;;;;;;12.25;5.32;;;;;;;17.72;74.15;101090.63;6059997;29;20048;-89
2022/05/14 09:41:29;;;;;;;13.50;5.00;;;;;;;17.79;73.46;101088.22;6055618;29;20629;-94
2022/05/14 09:44:52;;;;;;;12.77;5.10;;;;;;;17.81;72.04;101094.13;6053976;29;20049;-92
2022/05/14 09:47:54;;;;;;;16.00;5.32;;;;;;;17.86;72.35;101097.97;6047423;29;20521;-94
2022/05/14 09:51:00;;;;;;;12.43;5.22;;;;;;;17.90;72.46;101090.59;6059149;29;20040;-96
2022/05/14 09:54:23;;;;;;;15.57;5.18;;;;;;;18.10;72.36;101100.84;6054159;29;20152;-95
2022/05/14 09:57:40;;;;;;;15.93;4.60;;;;;;;18.09;68.25;101097.41;6061890;29;20153;-95
2022/05/14 10:01:05;;;;;;;12.10;4.68;;;;;;;18.12;70.08;101106.78;6057301;29;20056;-94
2022/05/14 10:04:26;;;;;;;9.57;4.53;;;;;;;18.16;70.94;101098.44;6051277;29;20381;-95
2022/05/14 10:07:42;;;;;;;12.18;5.05;;;;;;;18.25;70.10;101087.00;6057291;29;20048;-94
2022/05/14 10:10:50;;;;;;;16.45;4.70;;;;;;;18.47;70.02;101093.47;6027739;29;21455;-94
2022/05/14 10:14:27;;;;;;;13.70;5.15;;;;;;;18.50;68.23;101080.03;6072127;29;20051;-96
2022/05/14 10:18:02;;;;;;;12.77;4.97;;;;;;;18.59;68.16;101086.16;6061213;29;20041;-96
2022/05/14 10:21:31;;;;;;;11.90;4.18;;;;;;;18.69;63.26;101094.69;6048644;29;20048;-95
2022/05/14 10:28:49;;;;;;;16.60;5.03;;;;;;;18.92;65.43;101084.44;6061557;29;20467;-92
2022/05/14 10:31:59;;;;;;;13.43;4.32;;;;;;;19.29;64.38;101088.38;6057266;29;20411;-95
2022/05/14 10:35:38;;;;;;;18.25;4.95;;;;;;;19.34;60.35;101080.84;6039409;29;20049;-94
2022/05/14 10:38:46;;;;;;;9.82;3.92;;;;;;;19.49;59.50;101091.50;6048089;29;20056;-93
2022/05/14 10:41:57;;;;;;;11.65;3.58;;;;;;;19.67;56.51;101109.72;6067020;29;20046;-95
2022/05/14 10:45:06;;;;;;;9.77;3.80;;;;;;;19.65;56.51;101089.81;6054945;29;20172;-96
2022/05/14 10:48:24;;;;;;;11.10;3.63;;;;;;;19.87;56.77;101104.09;6055182;29;20049;-94
2022/05/14 10:51:37;;;;;;;12.82;3.97;;;;;;;20.04;56.55;101097.00;6060249;29;20037;-94
2022/05/14 10:54:39;;;;;;;9.55;3.80;;;;;;;20.09;55.09;101106.00;6037923;29;20052;-96
2022/05/14 10:57:45;;;;;;;10.88;4.03;;;;;;;20.16;55.60;101095.66;6056204;29;20048;-94
2022/05/14 11:00:53;;;;;;;10.60;4.10;;;;;;;19.98;57.00;101094.06;6041448;29;20132;-95
2022/05/14 11:04:30;;;;;;;13.10;4.20;;;;;;;19.85;57.49;101100.81;6033481;29;20041;-96
2022/05/14 11:07:43;;;;;;;15.65;4.40;;;;;;;19.70;56.61;101098.06;6040370;29;20165;-91
2022/05/14 11:10:45;;;;;;;10.70;4.20;;;;;;;19.72;56.65;101089.03;6056466;29;20550;-93
2022/05/14 11:14:08;;;;;;;11.98;3.75;;;;;;;20.12;52.11;101104.84;6060607;29;20066;-94
2022/05/14 11:17:29;;;;;;;12.95;3.53;;;;;;;20.44;49.48;101106.53;6051756;29;20050;-95
2022/05/14 11:20:32;;;;;;;14.13;3.70;;;;;;;20.39;49.81;101098.34;6044633;29;20068;-95
2022/05/14 11:23:46;;;;;;;12.15;3.65;;;;;;;20.39;51.33;101086.00;6040417;29;20056;-95
2022/05/14 11:26:53;;;;;;;12.73;4.15;;;;;;;20.62;52.02;101088.72;6058607;29;20045;-96
2022/05/14 11:30:00;;;;;;;14.25;4.47;;;;;;;20.76;50.84;101095.03;6058799;29;20044;-96
2022/05/14 11:33:21;;;;;;;13.75;4.20;;;;;;;20.39;50.87;101093.06;6045578;29;20620;-93
2022/05/14 11:36:34;;;;;;;9.60;3.20;;;;;;;20.03;50.31;101098.00;6025270;29;20052;-91
2022/05/14 11:39:38;;;;;;;8.98;3.72;;;;;;;19.57;52.23;101104.59;6062307;29;20047;-94
2022/05/14 11:42:40;;;;;;;10.23;3.80;;;;;;;19.70;51.84;101093.66;6039516;29;20041;-93
2022/05/14 11:46:08;;;;;;;12.88;4.18;;;;;;;19.93;52.68;101099.00;6076569;29;20074;-93
2022/05/14 11:49:26;;;;;;;13.30;3.85;;;;;;;20.38;47.64;101097.53;6074817;29;20041;-96
2022/05/14 11:53:01;;;;;;;15.35;4.15;;;;;;;20.93;48.04;101090.50;6060121;29;20123;-95
2022/05/14 11:56:13;;;;;;;11.95;3.53;;;;;;;20.79;49.53;101101.78;6056894;29;20049;-95
2022/05/14 11:59:57;;;;;;;9.27;3.53;;;;;;;20.62;48.33;101098.41;6069023;29;20040;-95
2022/05/14 12:03:25;;;;;;;12.73;3.40;;;;;;;21.39;47.13;101097.56;5976841;29;20064;-96
2022/05/14 12:06:45;;;;;;;10.23;3.33;;;;;;;21.26;45.32;101090.25;5976122;29;20050;-96
2022/05/14 12:10:09;;;;;;;10.05;3.03;;;;;;;21.23;47.13;101101.94;5980039;29;20049;-96
2022/05/14 12:13:16;;;;;;;12.48;3.30;;;;;;;21.59;45.77;101082.91;5981861;29;20144;-95
2022/05/14 12:16:30;;;;;;;11.57;3.38;;;;;;;21.85;46.36;101092.19;5968640;29;20488;-94
2022/05/14 12:19:38;;;;;;;10.77;3.58;;;;;;;21.38;47.22;101093.28;5957460;29;20057;-96
2022/05/14 12:22:51;;;;;;;10.70;3.90;;;;;;;20.93;48.85;101098.41;5989226;29;20061;-96
2022/05/14 12:25:53;;;;;;;12.15;3.60;;;;;;;21.04;47.64;101099.78;5972699;29;20062;-96
2022/05/14 12:28:59;;;;;;;14.45;4.38;;;;;;;21.14;47.25;101092.50;5966143;29;20078;-95
2022/05/14 12:36:02;;;;;;;11.18;3.58;;;;;;;20.83;47.96;101098.63;5969975;29;20050;-93
2022/05/14 12:39:16;;;;;;;10.80;3.13;;;;;;;20.65;46.94;101108.59;6035034;29;20068;-95
2022/05/14 12:42:23;;;;;;;8.65;3.25;;;;;;;20.49;48.25;101098.94;6057093;29;20048;-95
2022/05/14 12:45:34;;;;;;;8.15;3.22;;;;;;;20.62;48.25;101093.16;6049335;29;20056;-92
2022/05/14 12:48:44;;;;;;;13.27;3.58;;;;;;;21.02;46.41;101089.44;6052201;29;20136;-92
2022/05/14 12:51:58;;;;;;;12.70;4.07;;;;;;;21.87;45.45;101084.94;6060493;29;20055;-96
2022/05/14 12:55:16;;;;;;;12.68;4.03;;;;;;;22.87;42.44;101099.31;6059748;29;20057;-95
2022/05/14 12:58:19;;;;;;;10.95;3.45;;;;;;;22.82;42.46;101083.22;6070209;29;20041;-96
2022/05/14 13:01:24;;;;;;;10.45;3.80;;;;;;;22.99;41.23;101093.38;6071100;29;20534;-96
2022/05/14 13:04:41;;;;;;;10.85;3.63;;;;;;;23.03;40.81;101082.44;6066293;29;20045;-96
2022/05/14 13:07:50;;;;;;;12.02;3.08;;;;;;;23.78;40.39;101087.09;6047507;29;20510;-94
2022/05/14 13:11:02;;;;;;;12.10;3.50;;;;;;;24.37;39.01;101075.16;6065954;29;20052;-94
2022/05/14 13:14:25;;;;;;;9.70;3.40;;;;;;;24.16;37.83;101073.44;6072148;29;20378;-95
2022/05/14 13:17:40;;;;;;;8.77;2.95;;;;;;;23.42;38.80;101079.28;6045959;29;20044;-96
2022/05/14 13:20:42;;;;;;;12.45;2.95;;;;;;;22.89;39.32;101081.47;6075028;29;20051;-96
2022/05/14 13:24:16;;;;;;;9.00;2.85;;;;;;;22.55;40.03;101070.56;6063110;29;20060;-92
2022/05/14 13:27:28;;;;;;;10.65;3.20;;;;;;;22.54;40.62;101071.56;6053598;29;20614;-96
2022/05/14 13:30:33;;;;;;;8.57;3.15;;;;;;;23.24;37.54;101068.41;6063963;29;20045;-94
2022/05/14 13:33:38;;;;;;;8.80;3.20;;;;;;;23.49;36.47;101061.66;6036602;29;20119;-93
2022/05/14 13:40:11;;;;;;;9.60;3.25;;;;;;;22.73;39.26;101053.47;6059317;29;20088;-93
2022/05/14 13:43:26;;;;;;;8.70;2.60;;;;;;;22.50;39.71;101062.38;6052741;29;20503;-94
2022/05/14 13:46:33;;;;;;;12.07;3.38;;;;;;;22.25;40.35;101069.81;6059524;29;20578;-94
2022/05/14 13:49:35;;;;;;;8.23;2.88;;;;;;;21.85;41.70;101063.19;6053599;29;20049;-92
2022/05/14 13:52:50;;;;;;;12.07;3.40;;;;;;;22.10;41.24;101066.34;6056251;29;20127;-92
2022/05/14 13:56:06;;;;;;;8.18;3.20;;;;;;;22.21;40.26;101067.72;6050206;29;20148;-91
2022/05/14 13:59:21;;;;;;;8.65;2.90;;;;;;;22.25;40.67;101064.53;6053652;29;20045;-96
2022/05/14 14:02:29;;;;;;;7.95;2.72;;;;;;;22.44;41.15;101067.63;6051250;29;20128;-94
2022/05/14 14:05:34;;;;;;;10.68;2.95;;;;;;;22.49;40.31;101055.50;6039529;29;20088;-91
2022/05/14 14:08:36;;;;;;;9.70;3.00;;;;;;;22.43;39.49;101065.97;6045458;29;20167;-91
2022/05/14 14:11:44;;;;;;;11.68;3.13;;;;;;;22.43;40.42;101060.69;6038628;29;20157;-90
2022/05/14 14:14:46;;;;;;;12.07;3.03;;;;;;;22.24;40.29;101057.66;6057303;29;20045;-94
2022/05/14 14:17:48;;;;;;;8.90;3.00;;;;;;;22.22;41.29;101058.84;6056429;29;20048;-92
2022/05/14 14:20:56;;;;;;;8.45;3.05;;;;;;;22.27;40.72;101059.09;6042951;29;20079;-92
2022/05/14 14:24:00;;;;;;;11.05;3.00;;;;;;;22.15;41.13;101066.63;6063689;29;20575;-93
2022/05/14 14:27:02;;;;;;;10.70;3.17;;;;;;;22.23;41.06;101063.91;6054918;29;20375;-93
2022/05/14 14:30:06;;;;;;;9.98;2.78;;;;;;;22.51;40.04;101074.59;6028271;29;20049;-94
2022/05/14 14:33:09;;;;;;;9.48;3.20;;;;;;;22.44;39.11;101062.34;6049190;29;20056;-91
2022/05/14 14:36:11;;;;;;;11.73;3.33;;;;;;;22.32;40.18;101062.00;6051674;29;20070;-92
2022/05/14 14:39:13;;;;;;;10.32;3.10;;;;;;;22.54;39.73;101068.94;6056381;29;20161;-93
2022/05/14 14:42:15;;;;;;;11.73;3.20;;;;;;;22.74;40.15;101068.34;6054760;29;20037;-95
2022/05/14 14:45:17;;;;;;;8.88;3.10;;;;;;;22.83;39.89;101061.94;6061399;29;20535;-94
2022/05/14 14:48:20;;;;;;;12.95;3.08;;;;;;;22.71;39.98;101066.06;6037795;29;20040;-96